Time;durP1;ratioP1;P1;durP2;ratioP2;P2;SDS_P1;SDS_P2;PMS_P1;PMS_P2;Temp;Humidity;BMP_temperature;BMP_pressure;BME280_temperature;BME280_humidity;BME280_pressure;Samples;Min_cycle;Max_cycle;Signal;HPM_P1;HPM_P2
2022/05/01 00:02:13;;;;;;;10.77;6.90;;;11.90;91.20;;;;;;4971650;28;20023;-77
2022/05/01 00:04:39;;;;;;;14.93;7.57;;;11.90;91.20;;;;;;4971949;28;20070;-77
2022/05/01 00:07:05;;;;;;;11.40;7.20;;;11.90;91.30;;;;;;4971624;28;20037;-77
2022/05/01 00:09:30;;;;;;;10.47;7.37;;;11.80;91.30;;;;;;4972118;28;20154;-77
2022/05/01 00:11:57;;;;;;;11.80;7.73;;;11.80;91.40;;;;;;4971518;28;20031;-78
2022/05/01 00:14:22;;;;;;;12.27;7.17;;;11.80;91.40;;;;;;4971699;28;20093;-77
2022/05/01 00:16:49;;;;;;;12.60;6.93;;;11.80;91.40;;;;;;4971396;28;20510;-77
2022/05/01 00:19:15;;;;;;;11.17;7.50;;;11.80;91.40;;;;;;4971697;28;20035;-77
2022/05/01 00:21:41;;;;;;;12.03;8.00;;;11.80;91.40;;;;;;4971683;28;20031;-77
2022/05/01 00:24:07;;;;;;;12.87;7.87;;;11.70;91.30;;;;;;4971743;28;20038;-77
2022/05/01 00:26:34;;;;;;;13.80;8.17;;;11.70;91.40;;;;;;4971464;28;20082;-77
2022/05/01 00:29:06;;;;;;;10.83;7.20;;;11.70;91.50;;;;;;4971489;28;20407;-77
2022/05/01 00:31:32;;;;;;;12.47;8.00;;;11.70;91.50;;;;;;4971613;28;20038;-77
2022/05/01 00:36:42;;;;;;;11.23;7.30;;;11.70;91.50;;;;;;4971319;28;20038;-77
2022/05/01 00:39:08;;;;;;;12.37;7.60;;;11.60;91.60;;;;;;4971595;28;20023;-77
2022/05/01 00:41:41;;;;;;;12.43;7.70;;;11.60;91.60;;;;;;4971316;28;20054;-77
2022/05/01 00:44:17;;;;;;;11.10;7.20;;;11.60;91.50;;;;;;4971489;28;20054;-78
2022/05/01 00:46:48;;;;;;;11.43;6.97;;;11.60;91.60;;;;;;4953976;28;20121;-77
2022/05/01 00:49:16;;;;;;;10.67;6.87;;;11.60;91.60;;;;;;4971405;28;20120;-77
2022/05/01 00:51:45;;;;;;;12.63;7.67;;;11.60;91.60;;;;;;4971728;28;20035;-78
2022/05/01 00:54:11;;;;;;;11.40;7.40;;;11.60;91.60;;;;;;4974917;28;20113;-77
2022/05/01 00:56:41;;;;;;;10.93;7.63;;;11.60;91.60;;;;;;4974836;28;20031;-77
2022/05/01 00:59:10;;;;;;;11.87;7.90;;;11.60;91.60;;;;;;4974760;28;20403;-77
2022/05/01 01:01:36;;;;;;;13.03;7.37;;;11.60;92.00;;;;;;4974688;28;20062;-77
2022/05/01 01:04:03;;;;;;;14.03;8.10;;;11.60;91.80;;;;;;4974735;28;20031;-77
2022/05/01 01:06:31;;;;;;;13.93;8.03;;;11.60;91.90;;;;;;4974498;28;20038;-77
2022/05/01 01:08:57;;;;;;;14.23;7.97;;;11.60;91.90;;;;;;4974694;28;20035;-77
2022/05/01 01:11:23;;;;;;;12.33;7.90;;;11.60;91.90;;;;;;4974590;28;20043;-77
2022/05/01 01:13:49;;;;;;;14.37;8.33;;;11.60;92.00;;;;;;4974558;28;20057;-77
2022/05/01 01:16:15;;;;;;;12.90;8.30;;;11.60;92.10;;;;;;4974362;28;20039;-77
2022/05/01 01:18:41;;;;;;;13.47;7.97;;;11.50;92.20;;;;;;4974154;28;20031;-78
2022/05/01 01:21:10;;;;;;;13.47;8.03;;;11.50;92.30;;;;;;4956982;28;20031;-77
2022/05/01 01:23:39;;;;;;;13.40;8.13;;;11.50;92.40;;;;;;4957160;28;20040;-77
2022/05/01 01:26:05;;;;;;;11.13;8.20;;;11.50;92.60;;;;;;4974373;28;20043;-77
2022/05/01 01:28:37;;;;;;;14.60;8.93;;;11.50;92.60;;;;;;4974138;28;20035;-77
2022/05/01 01:33:53;;;;;;;13.30;8.37;;;11.50;92.80;;;;;;4974285;28;20105;-77
2022/05/01 01:36:23;;;;;;;12.27;8.50;;;11.50;92.80;;;;;;4974165;28;20042;-77
2022/05/01 01:38:50;;;;;;;14.63;9.17;;;11.50;92.80;;;;;;4973817;28;20030;-77
2022/05/01 01:41:21;;;;;;;14.93;8.70;;;11.50;92.80;;;;;;4974136;28;20507;-77
2022/05/01 01:43:48;;;;;;;12.07;7.73;;;11.50;92.90;;;;;;4974106;28;20038;-77
2022/05/01 01:46:14;;;;;;;13.30;9.10;;;11.50;92.90;;;;;;4956609;28;20027;-77
2022/05/01 01:48:40;;;;;;;13.83;8.67;;;11.50;93.00;;;;;;4973778;28;20041;-78
2022/05/01 01:51:06;;;;;;;12.60;8.60;;;11.50;93.10;;;;;;4974235;28;20030;-77
2022/05/01 01:53:34;;;;;;;13.70;8.57;;;11.50;93.20;;;;;;4973768;28;20038;-77
2022/05/01 01:56:00;;;;;;;13.83;8.97;;;11.50;93.20;;;;;;4956440;28;20447;-77
2022/05/01 01:58:28;;;;;;;12.23;8.37;;;11.50;93.20;;;;;;4973477;28;20113;-77
2022/05/01 02:00:54;;;;;;;15.60;9.57;;;11.40;93.20;;;;;;4974207;28;20030;-78
2022/05/01 02:03:20;;;;;;;13.53;8.97;;;11.50;93.30;;;;;;4972647;28;20078;-77
2022/05/01 02:05:49;;;;;;;15.10;9.00;;;11.50;93.20;;;;;;4956136;28;20039;-77
2022/05/01 02:08:16;;;;;;;13.23;9.57;;;11.50;93.20;;;;;;4973551;28;20114;-77
2022/05/01 02:10:44;;;;;;;12.70;8.87;;;11.50;93.20;;;;;;4973546;28;20022;-77
2022/05/01 02:13:10;;;;;;;13.93;8.87;;;11.40;93.30;;;;;;4973296;28;20479;-77
2022/05/01 02:15:37;;;;;;;12.10;8.27;;;11.40;93.40;;;;;;4973683;28;20176;-78
2022/05/01 02:18:04;;;;;;;23.23;13.13;;;11.40;93.80;;;;;;4973402;28;20117;-77
2022/05/01 02:23:18;;;;;;;13.27;9.27;;;11.30;93.70;;;;;;4952181;28;20043;-78
2022/05/01 02:25:44;;;;;;;12.87;8.93;;;11.30;93.80;;;;;;4973090;28;20082;-77
2022/05/01 02:28:13;;;;;;;13.57;9.43;;;11.40;93.90;;;;;;4972951;28;20038;-77
2022/05/01 02:30:39;;;;;;;17.63;10.57;;;11.40;93.90;;;;;;4973170;28;20034;-77
2022/05/01 02:33:06;;;;;;;18.50;10.67;;;11.40;93.80;;;;;;4973046;28;20097;-77
2022/05/01 02:35:32;;;;;;;15.07;9.93;;;11.30;93.80;;;;;;4973410;28;20361;-78
2022/05/01 02:37:59;;;;;;;15.77;9.13;;;11.40;93.80;;;;;;4972832;28;20081;-77
2022/05/01 02:40:26;;;;;;;15.33;9.50;;;11.40;93.80;;;;;;4972750;28;20042;-77
2022/05/01 02:42:52;;;;;;;15.27;9.40;;;11.40;93.80;;;;;;4972770;28;20062;-77
2022/05/01 02:45:18;;;;;;;13.10;9.10;;;11.40;93.80;;;;;;4972806;28;20050;-77
2022/05/01 02:47:44;;;;;;;15.30;9.53;;;11.40;93.90;;;;;;4972663;28;20479;-77
2022/05/01 02:50:10;;;;;;;17.37;10.53;;;11.40;94.00;;;;;;4972758;28;20062;-77
2022/05/01 02:52:35;;;;;;;18.83;10.53;;;11.30;94.00;;;;;;4972547;28;20034;-77
2022/05/01 02:55:01;;;;;;;13.97;9.20;;;11.30;94.10;;;;;;4972691;28;20027;-77
2022/05/01 02:57:27;;;;;;;15.23;9.60;;;11.30;94.10;;;;;;4972423;28;20038;-77
2022/05/01 02:59:53;;;;;;;14.97;9.53;;;11.20;94.20;;;;;;4972738;28;20030;-77
2022/05/01 03:02:19;;;;;;;15.63;10.10;;;11.30;94.20;;;;;;4972533;28;20030;-77
2022/05/01 03:04:45;;;;;;;14.97;10.17;;;11.30;94.30;;;;;;4972563;28;20034;-77
2022/05/01 03:07:13;;;;;;;17.27;9.80;;;11.30;94.30;;;;;;4972297;28;20121;-77
2022/05/01 03:09:38;;;;;;;13.60;10.07;;;11.30;94.20;;;;;;4954945;28;20054;-77
2022/05/01 03:12:05;;;;;;;15.73;9.73;;;11.30;94.20;;;;;;4955054;28;20034;-77
2022/05/01 03:14:31;;;;;;;13.90;9.90;;;11.30;94.30;;;;;;4972119;28;20447;-77
2022/05/01 03:16:57;;;;;;;15.47;9.77;;;11.30;94.40;;;;;;4939137;28;20110;-77
2022/05/01 03:22:11;;;;;;;13.67;9.33;;;11.20;94.50;;;;;;4972127;28;20035;-77
2022/05/01 03:24:38;;;;;;;15.75;10.15;;;11.30;94.70;;;;;;4972184;28;20542;-77
2022/05/01 03:27:05;;;;;;;14.17;10.20;;;11.20;94.70;;;;;;4971912;28;20042;-77
2022/05/01 03:29:31;;;;;;;15.70;10.00;;;11.20;94.80;;;;;;4972109;28;20054;-77
2022/05/01 03:31:59;;;;;;;17.67;10.13;;;11.20;94.90;;;;;;4971991;28;20503;-77
2022/05/01 03:34:26;;;;;;;16.50;10.27;;;11.20;94.90;;;;;;4972092;28;20077;-77
2022/05/01 03:36:55;;;;;;;15.03;10.10;;;11.20;94.90;;;;;;4971744;28;20039;-77
2022/05/01 03:39:21;;;;;;;15.50;9.80;;;11.20;94.80;;;;;;4954668;28;20022;-77
2022/05/01 03:41:47;;;;;;;18.10;10.47;;;11.20;94.70;;;;;;4971874;28;20395;-77
2022/05/01 03:44:13;;;;;;;16.70;10.27;;;11.20;94.80;;;;;;4972036;28;20018;-77
2022/05/01 03:46:38;;;;;;;15.27;10.60;;;11.20;95.00;;;;;;4971730;28;20611;-77
2022/05/01 03:49:10;;;;;;;14.73;10.40;;;11.10;95.30;;;;;;4971787;28;20110;-77
2022/05/01 03:51:36;;;;;;;14.13;9.77;;;11.10;95.40;;;;;;4954498;28;20471;-77
2022/05/01 03:54:02;;;;;;;16.93;10.67;;;11.10;95.50;;;;;;4972005;28;20042;-77
2022/05/01 03:56:33;;;;;;;14.90;10.43;;;11.00;95.60;;;;;;4971606;28;20034;-78
2022/05/01 03:58:59;;;;;;;20.10;11.80;;;11.00;95.90;;;;;;4971845;28;20475;-77
2022/05/01 04:01:26;;;;;;;16.73;10.90;;;11.00;96.10;;;;;;4971697;28;20031;-77
2022/05/01 04:03:53;;;;;;;16.33;10.80;;;11.00;96.20;;;;;;4971879;28;20023;-77
2022/05/01 04:06:19;;;;;;;18.97;11.07;;;11.00;96.10;;;;;;4971766;28;20027;-77
2022/05/01 04:08:45;;;;;;;17.97;10.73;;;10.90;96.00;;;;;;4971515;28;20049;-77
2022/05/01 04:11:11;;;;;;;16.20;10.60;;;10.90;96.20;;;;;;4971774;28;20114;-77
2022/05/01 04:13:37;;;;;;;16.43;11.40;;;10.90;96.60;;;;;;4972046;28;20554;-77
2022/05/01 04:16:03;;;;;;;15.70;11.03;;;10.80;96.50;;;;;;4971619;28;20043;-77
2022/05/01 04:18:31;;;;;;;15.07;10.87;;;10.80;96.70;;;;;;4971465;28;20483;-78
2022/05/01 04:20:58;;;;;;;15.33;10.43;;;10.70;97.00;;;;;;4971656;28;20046;-77
2022/05/01 04:23:24;;;;;;;19.17;11.13;;;10.70;97.30;;;;;;4971560;28;20031;-77
2022/05/01 04:25:50;;;;;;;17.57;10.80;;;10.70;97.60;;;;;;4971709;28;20227;-78
2022/05/01 04:28:16;;;;;;;17.13;11.03;;;10.60;97.70;;;;;;4974317;28;20214;-77
2022/05/01 04:30:42;;;;;;;17.43;10.93;;;10.70;98.10;;;;;;4975301;28;20042;-77
2022/05/01 04:33:14;;;;;;;15.27;10.80;;;10.70;97.80;;;;;;4975378;28;20034;-77
2022/05/01 04:35:48;;;;;;;18.90;11.43;;;10.60;98.00;;;;;;4975214;28;20406;-77
2022/05/01 04:38:18;;;;;;;16.03;10.20;;;10.70;98.00;;;;;;4974998;28;20102;-77
2022/05/01 04:40:46;;;;;;;14.63;10.47;;;10.70;98.00;;;;;;4975138;28;20030;-77
2022/05/01 04:43:14;;;;;;;15.53;10.63;;;10.70;97.90;;;;;;4975029;28;20391;-77
2022/05/01 04:45:43;;;;;;;14.73;10.30;;;10.70;97.90;;;;;;4975293;28;20058;-77
2022/05/01 04:48:10;;;;;;;16.88;10.90;;;10.70;97.90;;;;;;4974990;28;20129;-77
2022/05/01 04:50:36;;;;;;;17.53;11.10;;;10.60;98.10;;;;;;4974960;28;20101;-78
2022/05/01 04:53:06;;;;;;;14.80;10.03;;;10.60;98.20;;;;;;4974897;28;20031;-77
2022/05/01 04:55:33;;;;;;;17.10;11.27;;;10.70;98.30;;;;;;4974693;28;20570;-77
2022/05/01 04:57:59;;;;;;;17.03;11.23;;;10.70;98.80;;;;;;4974794;28;20280;-77
2022/05/01 05:00:26;;;;;;;13.93;10.30;;;10.70;98.50;;;;;;4975155;28;20058;-77
2022/05/01 05:02:54;;;;;;;15.07;10.60;;;10.70;98.60;;;;;;4974760;28;20325;-77
2022/05/01 05:05:21;;;;;;;17.83;10.83;;;10.80;98.60;;;;;;4974738;28;20146;-77
2022/05/01 05:07:47;;;;;;;15.40;10.70;;;10.80;98.70;;;;;;4974637;28;20102;-77
2022/05/01 05:10:14;;;;;;;15.27;10.47;;;10.80;98.60;;;;;;4974591;28;20035;-77
2022/05/01 05:12:42;;;;;;;16.47;10.47;;;10.80;98.50;;;;;;4974478;28;20491;-77
2022/05/01 05:15:15;;;;;;;19.27;11.73;;;10.90;98.30;;;;;;4974658;28;20543;-77
2022/05/01 05:17:41;;;;;;;15.63;10.67;;;10.90;98.30;;;;;;4974268;28;20050;-77
2022/05/01 05:20:08;;;;;;;16.47;11.43;;;10.90;98.30;;;;;;4974369;28;20035;-77
2022/05/01 05:22:35;;;;;;;16.33;10.83;;;10.90;98.10;;;;;;4974323;28;20054;-77
2022/05/01 05:25:01;;;;;;;16.90;9.83;;;11.00;98.00;;;;;;4974388;28;20035;-77
2022/05/01 05:27:26;;;;;;;14.67;9.90;;;11.00;97.60;;;;;;4956856;28;20483;-77
2022/05/01 05:29:53;;;;;;;14.07;9.30;;;11.00;97.30;;;;;;4974237;28;20042;-77
2022/05/01 05:32:20;;;;;;;15.80;9.47;;;11.00;96.90;;;;;;4974193;28;20093;-78
2022/05/01 05:34:45;;;;;;;12.33;8.87;;;11.00;96.50;;;;;;4974181;28;20035;-77
2022/05/01 05:37:12;;;;;;;12.20;8.53;;;11.10;96.40;;;;;;4973908;28;20476;-77
2022/05/01 05:39:38;;;;;;;14.13;8.47;;;11.10;96.10;;;;;;4986372;22;20228;-78
2022/05/01 05:42:04;;;;;;;13.63;8.80;;;11.10;96.30;;;;;;4973979;28;20031;-78
2022/05/01 05:44:30;;;;;;;11.70;8.60;;;11.20;96.00;;;;;;4956691;28;20471;-78
2022/05/01 05:46:56;;;;;;;14.00;8.43;;;11.20;95.40;;;;;;4973890;28;20042;-78
2022/05/01 05:49:21;;;;;;;12.77;7.63;;;11.20;95.40;;;;;;4973888;28;20110;-78
2022/05/01 05:51:47;;;;;;;12.83;7.27;;;11.20;95.40;;;;;;4973776;28;20039;-78
2022/05/01 05:54:13;;;;;;;11.40;7.87;;;11.20;95.40;;;;;;4973729;28;20499;-78
2022/05/01 05:56:39;;;;;;;11.57;8.03;;;11.30;95.40;;;;;;4973544;28;20119;-78
2022/05/01 05:59:04;;;;;;;13.60;7.53;;;11.30;95.10;;;;;;4973987;28;20035;-78
2022/05/01 06:01:30;;;;;;;13.30;7.80;;;11.30;95.00;;;;;;4973588;28;20027;-78
2022/05/01 06:03:56;;;;;;;15.83;8.90;;;11.40;94.90;;;;;;4973717;28;20115;-78
2022/05/01 06:06:21;;;;;;;11.93;7.73;;;11.30;94.60;;;;;;4973645;28;20030;-78
2022/05/01 06:08:47;;;;;;;12.63;8.43;;;11.40;94.50;;;;;;4973262;28;20037;-78
2022/05/01 06:11:13;;;;;;;12.60;8.07;;;11.40;94.30;;;;;;4973567;28;20121;-78
2022/05/01 06:13:39;;;;;;;15.20;9.20;;;11.40;94.40;;;;;;4973356;28;20034;-78
2022/05/01 06:16:05;;;;;;;13.00;8.47;;;11.50;94.20;;;;;;4973531;28;20057;-78
2022/05/01 06:18:31;;;;;;;15.20;8.83;;;11.60;94.20;;;;;;4973159;28;20452;-78
2022/05/01 06:20:57;;;;;;;15.27;8.90;;;11.60;94.10;;;;;;4956040;28;20058;-78
2022/05/01 06:23:23;;;;;;;15.53;8.73;;;11.60;94.00;;;;;;4973274;28;20443;-78
2022/05/01 06:25:50;;;;;;;11.93;7.90;;;11.70;93.90;;;;;;4973275;28;20097;-78
2022/05/01 06:28:16;;;;;;;13.40;8.17;;;11.70;93.90;;;;;;4973055;28;20372;-78
2022/05/01 06:30:47;;;;;;;11.27;8.13;;;11.80;94.00;;;;;;4956018;28;20069;-78
2022/05/01 06:33:16;;;;;;;13.50;9.10;;;11.80;94.00;;;;;;4955775;28;20074;-78
2022/05/01 06:35:43;;;;;;;13.75;9.18;;;11.90;94.10;;;;;;4972750;28;20042;-78
2022/05/01 06:38:09;;;;;;;13.43;8.90;;;11.90;94.00;;;;;;4955517;28;20073;-78
2022/05/01 06:40:38;;;;;;;13.13;8.80;;;11.90;93.80;;;;;;4972943;28;20038;-78
2022/05/01 06:43:05;;;;;;;13.65;8.70;;;11.90;93.90;;;;;;4972984;28;20041;-78
2022/05/01 06:45:31;;;;;;;13.67;9.27;;;11.90;93.90;;;;;;4972909;28;20026;-78
2022/05/01 06:47:57;;;;;;;12.30;8.43;;;11.90;94.00;;;;;;4939354;28;20384;-78
2022/05/01 06:50:22;;;;;;;16.27;9.93;;;11.90;93.90;;;;;;4972260;28;20026;-79
2022/05/01 06:52:48;;;;;;;12.80;8.77;;;11.90;94.00;;;;;;4972568;28;20550;-78
2022/05/01 06:55:16;;;;;;;15.80;10.30;;;11.90;94.00;;;;;;4972989;28;20034;-78
2022/05/01 06:57:42;;;;;;;14.53;9.33;;;11.90;94.00;;;;;;4972492;28;20031;-78
2022/05/01 07:00:08;;;;;;;14.37;8.27;;;11.90;94.00;;;;;;4972610;28;20030;-78
2022/05/01 07:02:34;;;;;;;12.83;7.97;;;11.90;93.70;;;;;;4972442;28;20115;-78
2022/05/01 07:04:59;;;;;;;14.20;8.50;;;12.00;93.60;;;;;;4972453;28;20120;-78
2022/05/01 07:07:25;;;;;;;11.90;8.10;;;12.00;93.70;;;;;;4972609;28;20129;-78
2022/05/01 07:09:51;;;;;;;11.73;8.47;;;12.10;93.90;;;;;;4972499;28;20035;-78
2022/05/01 07:12:17;;;;;;;12.33;7.70;;;12.10;93.70;;;;;;4972337;28;20122;-78
2022/05/01 07:14:44;;;;;;;13.17;8.83;;;12.20;93.50;;;;;;4972853;28;20033;-78
2022/05/01 07:17:10;;;;;;;13.20;8.00;;;12.20;93.20;;;;;;4972246;28;20140;-78
2022/05/01 07:19:36;;;;;;;11.67;7.60;;;12.30;93.10;;;;;;4972256;28;20058;-78
2022/05/01 07:22:01;;;;;;;9.77;6.97;;;12.30;93.20;;;;;;4972076;28;20121;-77
2022/05/01 07:24:27;;;;;;;12.27;7.33;;;12.40;93.10;;;;;;4972275;28;20038;-78
2022/05/01 07:26:53;;;;;;;10.43;7.20;;;12.30;92.90;;;;;;4971940;28;20034;-78
2022/05/01 07:29:18;;;;;;;9.87;6.53;;;12.40;92.80;;;;;;4972450;28;20167;-78
2022/05/01 07:31:44;;;;;;;10.23;6.53;;;12.40;92.80;;;;;;4972000;28;20058;-78
2022/05/01 07:34:10;;;;;;;11.20;6.60;;;12.40;92.80;;;;;;4972052;28;20065;-78
2022/05/01 07:36:37;;;;;;;11.43;6.80;;;12.50;92.80;;;;;;4971790;28;20035;-78
2022/05/01 07:39:03;;;;;;;9.80;6.87;;;12.50;92.70;;;;;;4972037;28;20027;-78
2022/05/01 07:41:29;;;;;;;11.77;7.37;;;12.60;92.60;;;;;;4971859;28;20031;-78
2022/05/01 07:43:58;;;;;;;11.63;7.10;;;12.60;92.60;;;;;;4972458;28;20038;-78
2022/05/01 07:46:24;;;;;;;12.15;7.78;;;12.60;92.50;;;;;;4971859;28;20059;-78
2022/05/01 07:48:50;;;;;;;10.53;6.70;;;12.60;92.10;;;;;;4971781;28;20422;-78
2022/05/01 07:51:16;;;;;;;14.70;8.63;;;12.70;92.20;;;;;;4972004;28;20034;-77
2022/05/01 07:53:43;;;;;;;12.87;8.23;;;12.70;91.90;;;;;;4971804;28;20046;-78
2022/05/01 07:56:08;;;;;;;12.63;7.47;;;12.70;92.10;;;;;;4971913;28;20035;-78
2022/05/01 07:58:34;;;;;;;11.33;7.30;;;12.70;92.10;;;;;;4971646;28;20027;-78
2022/05/01 08:01:01;;;;;;;13.43;7.90;;;12.80;92.30;;;;;;4971743;28;20027;-78
2022/05/01 08:06:13;;;;;;;11.53;6.90;;;12.90;91.70;;;;;;4975794;28;20110;-78
2022/05/01 08:08:39;;;;;;;10.93;6.97;;;12.90;91.60;;;;;;4975481;28;20444;-78
2022/05/01 08:11:05;;;;;;;11.53;7.23;;;13.00;91.90;;;;;;4975718;28;20491;-78
2022/05/01 08:13:32;;;;;;;10.73;6.82;;;13.00;91.40;;;;;;4975509;28;20172;-78
2022/05/01 08:15:58;;;;;;;11.00;6.63;;;13.10;91.10;;;;;;4975484;28;20057;-78
2022/05/01 08:21:08;;;;;;;10.15;6.43;;;13.20;90.80;;;;;;4975775;28;20506;-78
2022/05/01 08:23:36;;;;;;;10.68;6.63;;;13.20;90.80;;;;;;4975447;28;20101;-77
2022/05/01 08:26:06;;;;;;;11.50;6.65;;;13.30;90.70;;;;;;4975511;28;20110;-77
2022/05/01 08:28:37;;;;;;;13.65;6.32;;;13.30;90.50;;;;;;4975410;28;20031;-77
2022/05/01 08:31:05;;;;;;;10.75;6.78;;;13.30;89.70;;;;;;4975351;28;20034;-77
2022/05/01 08:33:32;;;;;;;11.43;6.55;;;13.30;90.10;;;;;;4975210;28;20477;-77
2022/05/01 08:35:58;;;;;;;10.98;6.63;;;13.40;90.10;;;;;;4975282;28;20030;-78
2022/05/01 08:38:25;;;;;;;10.68;7.00;;;13.40;89.90;;;;;;4975163;28;20443;-77
2022/05/01 08:40:52;;;;;;;11.38;6.80;;;13.40;89.80;;;;;;4974923;28;20038;-77
2022/05/01 08:43:19;;;;;;;8.60;6.20;;;13.50;89.20;;;;;;4975112;28;20023;-77
2022/05/01 08:45:54;;;;;;;9.02;6.20;;;13.50;89.70;;;;;;4975124;28;20468;-77
2022/05/01 08:48:29;;;;;;;11.73;6.32;;;13.50;90.00;;;;;;4974998;28;20479;-77
2022/05/01 08:50:56;;;;;;;12.75;7.28;;;13.50;89.50;;;;;;4975041;28;20031;-77
2022/05/01 08:53:27;;;;;;;10.70;6.57;;;13.60;88.90;;;;;;4974796;28;20086;-77
2022/05/01 08:55:54;;;;;;;12.32;6.70;;;13.60;88.40;;;;;;4957444;28;20443;-77
2022/05/01 08:58:21;;;;;;;12.00;7.25;;;13.60;88.20;;;;;;4957330;28;20034;-77
2022/05/01 09:00:49;;;;;;;10.60;6.40;;;13.60;88.40;;;;;;4974896;28;20427;-77
2022/05/01 09:03:18;;;;;;;9.10;5.68;;;13.60;88.40;;;;;;4974736;28;20050;-77
2022/05/01 09:05:44;;;;;;;9.98;6.13;;;13.70;87.50;;;;;;4974715;28;20041;-77
2022/05/01 09:08:10;;;;;;;10.98;5.93;;;13.70;84.40;;;;;;4974427;28;20057;-77
2022/05/01 09:10:36;;;;;;;10.07;6.35;;;13.70;82.00;;;;;;4957352;28;20031;-77
2022/05/01 09:13:03;;;;;;;10.27;5.80;;;13.70;80.50;;;;;;4974000;28;20031;-78
2022/05/01 09:15:34;;;;;;;8.70;5.75;;;13.70;79.00;;;;;;4974477;28;20506;-77
2022/05/01 09:18:05;;;;;;;11.48;5.55;;;13.70;80.60;;;;;;4974266;28;20027;-77
2022/05/01 09:20:31;;;;;;;10.18;6.35;;;13.70;81.80;;;;;;4974399;28;20122;-77
2022/05/01 09:22:59;;;;;;;11.30;6.00;;;13.70;81.40;;;;;;4974301;28;20502;-77
2022/05/01 09:25:27;;;;;;;9.88;6.78;;;13.70;79.90;;;;;;4974477;28;20033;-76
2022/05/01 09:27:57;;;;;;;9.33;6.33;;;13.80;79.40;;;;;;4974541;28;20029;-76
2022/05/01 09:30:31;;;;;;;10.05;7.25;;;13.70;79.30;;;;;;4974308;28;20739;-79
2022/05/01 09:32:58;;;;;;;9.77;6.78;;;13.70;79.30;;;;;;4957052;28;20471;-76
2022/05/01 09:35:34;;;;;;;11.18;8.57;;;13.70;79.50;;;;;;4956881;28;20118;-79
2022/05/01 09:38:21;;;;;;;10.85;7.80;;;13.70;80.80;;;;;;4956539;28;20074;-76
2022/05/01 09:40:50;;;;;;;13.73;8.10;;;13.70;81.10;;;;;;4974051;28;20037;-76
2022/05/01 09:43:39;;;;;;;9.52;7.00;;;13.70;80.20;;;;;;4973960;28;20027;-79
2022/05/01 09:46:16;;;;;;;9.82;6.20;;;13.60;81.90;;;;;;4974143;28;20034;-76
2022/05/01 09:48:56;;;;;;;10.23;6.30;;;13.60;82.70;;;;;;4973770;28;20030;-76
2022/05/01 09:51:22;;;;;;;10.70;6.88;;;13.60;83.10;;;;;;4973900;28;20026;-76
2022/05/01 09:53:48;;;;;;;11.38;6.55;;;13.60;84.00;;;;;;4973822;28;20521;-76
2022/05/01 09:56:14;;;;;;;11.40;7.18;;;13.60;82.10;;;;;;4974013;28;20026;-76
2022/05/01 09:58:46;;;;;;;12.55;7.10;;;13.50;81.40;;;;;;4973758;28;20058;-76
2022/05/01 10:01:13;;;;;;;10.00;6.97;;;13.60;82.60;;;;;;4973762;28;20023;-79
2022/05/01 10:03:41;;;;;;;10.65;6.78;;;13.50;83.10;;;;;;4973594;28;20173;-77
2022/05/01 10:06:10;;;;;;;10.27;6.40;;;13.50;82.40;;;;;;4956265;28;20110;-76
2022/05/01 10:08:38;;;;;;;11.77;7.30;;;13.50;81.60;;;;;;4973406;28;20030;-78
2022/05/01 10:11:05;;;;;;;11.25;7.45;;;13.50;81.60;;;;;;4973442;28;20805;-79
2022/05/01 10:13:32;;;;;;;10.68;7.20;;;13.50;82.60;;;;;;4973483;28;20030;-78
2022/05/01 10:15:59;;;;;;;9.77;6.75;;;13.50;82.70;;;;;;4973265;28;20566;-78
2022/05/01 10:18:25;;;;;;;10.25;6.28;;;13.50;82.60;;;;;;4973192;28;20073;-78
2022/05/01 10:20:52;;;;;;;10.85;6.10;;;13.60;82.50;;;;;;4973253;28;20031;-78
2022/05/01 10:23:18;;;;;;;9.52;6.68;;;13.60;82.40;;;;;;4973415;28;20027;-79
2022/05/01 10:26:07;;;;;;;10.45;6.50;;;13.60;82.30;;;;;;4972443;28;20027;-77
2022/05/01 10:28:45;;;;;;;9.95;6.28;;;13.60;81.00;;;;;;4960344;28;20106;-78
2022/05/01 10:34:28;;;;;;;10.48;5.90;;;13.60;81.00;;;;;;4955784;28;20038;-79
2022/05/01 10:37:09;;;;;;;9.32;5.70;;;13.70;81.40;;;;;;4972858;28;20030;-79
2022/05/01 10:39:39;;;;;;;9.55;6.03;;;13.80;81.20;;;;;;4972794;28;20113;-79
2022/05/01 10:42:05;;;;;;;8.18;6.07;;;13.90;81.10;;;;;;4972882;28;20116;-79
2022/05/01 10:44:36;;;;;;;9.93;6.15;;;13.90;80.70;;;;;;4972971;28;20076;-79
2022/05/01 10:47:06;;;;;;;8.40;5.80;;;14.00;79.10;;;;;;4972818;28;20074;-78
2022/05/01 10:49:34;;;;;;;9.10;5.80;;;14.00;79.90;;;;;;4972796;28;20081;-78
2022/05/01 10:52:22;;;;;;;9.30;5.45;;;14.10;79.80;;;;;;4972531;28;20118;-79
2022/05/01 10:55:01;;;;;;;10.10;6.82;;;14.20;79.60;;;;;;4972776;28;20089;-79
2022/05/01 10:57:27;;;;;;;11.68;6.82;;;14.10;79.40;;;;;;4972441;28;20066;-79
2022/05/01 11:00:19;;;;;;;9.55;6.20;;;14.20;79.20;;;;;;4972649;28;20329;-79
2022/05/01 11:02:46;;;;;;;9.50;6.50;;;14.20;79.70;;;;;;4951685;28;20070;-79
2022/05/01 11:05:45;;;;;;;8.52;6.40;;;14.20;79.20;;;;;;4972620;28;20073;-79
2022/05/01 11:08:19;;;;;;;10.15;6.55;;;14.30;79.20;;;;;;4972506;28;20432;-79
2022/05/01 11:10:47;;;;;;;13.18;6.93;;;14.40;79.50;;;;;;4972463;28;20046;-78
2022/05/01 11:13:16;;;;;;;10.85;6.63;;;14.40;78.90;;;;;;4972362;28;20057;-78
2022/05/01 11:15:50;;;;;;;12.02;6.63;;;14.50;78.40;;;;;;4972476;28;20403;-77
2022/05/01 11:18:26;;;;;;;10.27;6.40;;;14.40;78.30;;;;;;4972432;28;20283;-78
2022/05/01 11:20:52;;;;;;;8.73;6.55;;;14.50;78.20;;;;;;4972365;28;20038;-78
2022/05/01 11:23:29;;;;;;;11.88;6.75;;;14.50;78.20;;;;;;4972124;28;20031;-78
2022/05/01 11:26:06;;;;;;;10.25;6.60;;;14.50;77.80;;;;;;4972473;28;20472;-78
2022/05/01 11:28:42;;;;;;;11.05;6.60;;;14.50;78.40;;;;;;4972110;28;20038;-77
2022/05/01 11:31:35;;;;;;;12.05;6.93;;;14.50;78.70;;;;;;4971981;28;20052;-78
2022/05/01 11:34:16;;;;;;;10.30;7.40;;;14.60;78.60;;;;;;4972385;28;20121;-78
2022/05/01 11:36:53;;;;;;;10.73;7.32;;;14.70;79.00;;;;;;4971682;28;20031;-78
2022/05/01 11:39:20;;;;;;;9.80;6.68;;;14.70;77.40;;;;;;4971961;28;20439;-77
2022/05/01 11:41:47;;;;;;;10.88;6.88;;;14.80;77.00;;;;;;4984902;23;20047;-80
2022/05/01 11:44:23;;;;;;;11.40;7.40;;;14.80;77.30;;;;;;4954748;28;20031;-79
2022/05/01 11:46:51;;;;;;;10.18;8.02;;;14.80;76.60;;;;;;4972031;28;20102;-79
2022/05/01 11:49:18;;;;;;;13.25;7.80;;;14.80;77.10;;;;;;4972003;28;20455;-79
2022/05/01 11:51:47;;;;;;;11.52;8.80;;;14.80;77.50;;;;;;4971781;28;20043;-80
2022/05/01 11:54:15;;;;;;;12.07;8.07;;;14.90;77.40;;;;;;4971837;28;20072;-80
2022/05/01 12:02:25;;;;;;;12.23;8.52;;;15.00;77.40;;;;;;4971852;28;20027;-80
2022/05/01 12:04:51;;;;;;;13.13;8.63;;;14.90;76.80;;;;;;4971757;28;20027;-80
2022/05/01 12:07:18;;;;;;;10.90;8.90;;;14.90;76.50;;;;;;4971879;28;20039;-80
2022/05/01 12:09:46;;;;;;;14.68;9.07;;;14.90;76.70;;;;;;4954279;28;20035;-80
2022/05/01 12:12:16;;;;;;;12.47;9.13;;;14.90;76.80;;;;;;4971782;28;20035;-79
2022/05/01 12:14:44;;;;;;;10.63;8.38;;;14.90;76.50;;;;;;4971768;28;20030;-79
2022/05/01 12:17:15;;;;;;;11.73;8.48;;;14.90;77.00;;;;;;4971496;28;20509;-80
2022/05/01 12:19:47;;;;;;;11.32;8.50;;;14.90;77.30;;;;;;4971913;28;20099;-80
2022/05/01 12:22:18;;;;;;;12.65;9.45;;;14.90;77.20;;;;;;4954150;28;20376;-80
2022/05/01 12:24:45;;;;;;;13.95;9.15;;;15.00;76.00;;;;;;4954393;28;20118;-80
2022/05/01 12:27:12;;;;;;;11.75;8.95;;;15.00;76.70;;;;;;4954464;28;20061;-80
2022/05/01 12:29:41;;;;;;;12.93;9.25;;;15.00;76.00;;;;;;4971417;28;20034;-80
2022/05/01 12:32:11;;;;;;;14.20;8.93;;;15.00;76.10;;;;;;4971367;28;20034;-80
2022/05/01 12:34:55;;;;;;;11.40;7.90;;;15.00;76.30;;;;;;4971523;28;20762;-80
2022/05/01 12:37:32;;;;;;;11.43;8.05;;;15.00;77.20;;;;;;4971378;28;20031;-80
2022/05/01 12:40:09;;;;;;;11.50;8.00;;;15.10;77.40;;;;;;4971370;28;20038;-80
2022/05/01 12:45:36;;;;;;;11.75;8.93;;;15.10;77.30;;;;;;4971473;28;20031;-80
2022/05/01 12:48:04;;;;;;;13.60;10.27;;;15.20;77.10;;;;;;4972162;28;20027;-79
2022/05/01 12:50:48;;;;;;;15.23;10.20;;;15.20;75.40;;;;;;4975080;28;20069;-80
2022/05/01 12:53:26;;;;;;;12.77;10.18;;;15.20;75.30;;;;;;4975097;28;20033;-80
2022/05/01 12:55:53;;;;;;;15.23;9.60;;;15.20;75.80;;;;;;4974988;28;20049;-80
2022/05/01 12:58:35;;;;;;;12.50;9.18;;;15.20;75.70;;;;;;4974865;28;20035;-80
2022/05/01 13:01:04;;;;;;;12.60;8.68;;;15.10;76.20;;;;;;4974867;28;20435;-80
2022/05/01 13:03:33;;;;;;;;;;;15.20;77.20;;;;;;4975446;28;20387;-80
2022/05/01 13:06:11;;;;;;;14.13;9.40;;;15.20;77.30;;;;;;4974795;28;19917;-80
2022/05/01 13:08:42;;;;;;;15.40;11.13;;;15.20;76.20;;;;;;4957202;28;20475;-80
2022/05/01 13:11:14;;;;;;;15.88;10.95;;;15.20;75.00;;;;;;4974768;28;20042;-79